createdAt,value
2023-04-23T00:01:07.060Z,94889.78
2023-04-23T00:03:51.370Z,94893.75
2023-04-23T00:06:35.284Z,94897.31
2023-04-23T00:09:20.086Z,94891.59
2023-04-23T00:12:03.588Z,94892.00
2023-04-23T00:14:47.310Z,94894.59
2023-04-23T00:17:30.846Z,94892.19
2023-04-23T00:20:14.232Z,94884.47
2023-04-23T00:22:57.401Z,94893.41
2023-04-23T00:25:42.127Z,94891.44
2023-04-23T00:28:25.303Z,94886.47
2023-04-23T00:31:08.799Z,94881.91
2023-04-23T00:33:51.949Z,94880.53
2023-04-23T00:36:35.209Z,94880.13
2023-04-23T00:39:18.341Z,94876.38
2023-04-23T00:42:10.581Z,94877.94
2023-04-23T00:44:53.753Z,94880.34
2023-04-23T00:47:37.261Z,94871.22
2023-04-23T00:50:20.907Z,94876.78
2023-04-23T00:53:04.282Z,94877.97
2023-04-23T00:55:48.841Z,94877.16
2023-04-23T00:58:34.642Z,94876.19
2023-04-23T01:01:20.878Z,94874.38
2023-04-23T01:04:05.337Z,94874.53
2023-04-23T01:06:49.503Z,94875.38
2023-04-23T01:09:36.058Z,94880.53
2023-04-23T01:12:19.638Z,94884.09
2023-04-23T01:15:05.401Z,94885.28
2023-04-23T01:17:48.561Z,94880.53
2023-04-23T01:20:32.262Z,94879.97
2023-04-23T01:23:17.541Z,94879.53
2023-04-23T01:26:01.131Z,94879.53
2023-04-23T01:28:46.127Z,94888.66
2023-04-23T01:31:29.809Z,94879.13
2023-04-23T01:34:13.701Z,94882.69
2023-04-23T01:36:58.216Z,94889.44
2023-04-23T01:39:42.921Z,94891.81
2023-04-23T01:42:25.990Z,94887.44
2023-04-23T01:45:10.453Z,94898.16
2023-04-23T01:47:53.801Z,94902.50
2023-04-23T01:50:37.284Z,94895.38
2023-04-23T01:53:20.455Z,94906.91
2023-04-23T01:56:06.651Z,94902.13
2023-04-23T01:58:50.006Z,94911.22
2023-04-23T02:01:47.454Z,94909.84
2023-04-23T02:04:31.708Z,94911.63
2023-04-23T02:07:14.910Z,94904.47
2023-04-23T02:09:58.130Z,94911.81
2023-04-23T02:12:43.053Z,94907.44
2023-04-23T02:15:26.345Z,94904.44
2023-04-23T02:18:09.641Z,94903.25
2023-04-23T02:20:52.877Z,94903.03
2023-04-23T02:23:36.081Z,94913.56
2023-04-23T02:26:19.956Z,94911.19
2023-04-23T02:29:04.565Z,94914.38
2023-04-23T02:31:47.810Z,94903.25
2023-04-23T02:34:31.131Z,94907.41
2023-04-23T02:37:14.347Z,94898.69
2023-04-23T02:39:57.697Z,94902.81
2023-04-23T02:42:42.574Z,94910.13
2023-04-23T02:45:28.775Z,94907.38
2023-04-23T02:48:12.159Z,94905.75
2023-04-23T02:50:55.323Z,94912.69
2023-04-23T02:53:38.651Z,94900.59
2023-04-23T02:56:21.741Z,94907.75
2023-04-23T02:59:04.935Z,94907.97
2023-04-23T03:01:49.404Z,94906.38
2023-04-23T03:04:32.658Z,94906.75
2023-04-23T03:07:17.495Z,94916.66
2023-04-23T03:10:00.654Z,94916.69
2023-04-23T03:12:43.744Z,94918.06
2023-04-23T03:15:28.515Z,94921.84
2023-04-23T03:18:13.033Z,94925.38
2023-04-23T03:20:57.412Z,94916.84
2023-04-23T03:23:40.603Z,94923.75
2023-04-23T03:26:24.003Z,94931.25
2023-04-23T03:29:07.993Z,94921.72
2023-04-23T03:31:51.153Z,94930.06
2023-04-23T03:34:35.651Z,94929.28
2023-04-23T03:37:18.781Z,94933.75
2023-04-23T03:40:03.735Z,94936.19
2023-04-23T03:42:47.122Z,94933.44
2023-04-23T03:45:31.730Z,94932.03
2023-04-23T03:48:14.830Z,94931.06
2023-04-23T03:50:59.400Z,94934.66
2023-04-23T03:53:42.505Z,94940.44
2023-04-23T03:56:27.130Z,94935.34
2023-04-23T03:59:10.863Z,94950.84
2023-04-23T04:01:54.222Z,94949.69
2023-04-23T04:04:38.274Z,94953.25
2023-04-23T04:07:23.024Z,94957.44
2023-04-23T04:10:07.982Z,94955.66
2023-04-23T04:12:51.266Z,94950.72
2023-04-23T04:15:34.339Z,94954.91
2023-04-23T04:18:17.444Z,94955.56
2023-04-23T04:21:01.010Z,94954.16
2023-04-23T04:23:46.027Z,94953.78
2023-04-23T04:26:29.985Z,94959.34
2023-04-23T04:29:13.367Z,94954.97
2023-04-23T04:31:56.578Z,94955.94
2023-04-23T04:34:40.641Z,94957.59
2023-04-23T04:37:23.927Z,94961.56
2023-04-23T04:40:11.519Z,94968.34
2023-04-23T04:42:57.532Z,94966.56
2023-04-23T04:45:40.605Z,94967.34
2023-04-23T04:48:23.909Z,94963.53
2023-04-23T04:51:07.254Z,94964.53
2023-04-23T04:53:50.978Z,94968.50
2023-04-23T04:56:36.169Z,94977.97
2023-04-23T04:59:19.877Z,94944.63
2023-04-23T05:02:03.209Z,94973.34
2023-04-23T05:04:46.535Z,94972.41
2023-04-23T05:07:29.950Z,94977.53
2023-04-23T05:10:14.724Z,94971.84
2023-04-23T05:12:59.847Z,94970.13
2023-04-23T05:15:42.996Z,94972.81
2023-04-23T05:18:26.172Z,94969.75
2023-04-23T05:21:09.822Z,94975.50
2023-04-23T05:23:53.319Z,94963.91
2023-04-23T05:26:36.744Z,94971.13
2023-04-23T05:29:21.797Z,94967.94
2023-04-23T05:32:05.102Z,94971.03
2023-04-23T05:34:51.413Z,94972.59
2023-04-23T05:37:34.759Z,94971.72
2023-04-23T05:40:18.084Z,94978.34
2023-04-23T05:43:01.231Z,94981.22
2023-04-23T05:45:45.746Z,94974.06
2023-04-23T05:48:28.841Z,94985.38
2023-04-23T05:51:12.634Z,94977.91
2023-04-23T05:53:55.729Z,94979.66
2023-04-23T05:56:39.260Z,94980.81
2023-04-23T05:59:23.147Z,94981.13
2023-04-23T06:02:08.905Z,94967.44
2023-04-23T06:04:52.463Z,94971.31
2023-04-23T06:07:36.488Z,94970.38
2023-04-23T06:10:20.201Z,94966.75
2023-04-23T06:13:03.793Z,94967.69
2023-04-23T06:15:47.257Z,94963.16
2023-04-23T06:18:32.338Z,94971.16
2023-04-23T06:23:59.865Z,94965.31
2023-04-23T06:26:43.591Z,94967.53
2023-04-23T06:29:28.108Z,94966.19
2023-04-23T06:32:11.785Z,94966.56
2023-04-23T06:35:01.579Z,94963.53
2023-04-23T06:37:46.779Z,94952.28
2023-04-23T06:40:29.972Z,94958.09
2023-04-23T06:43:14.618Z,94954.25
2023-04-23T06:45:57.784Z,94957.69
2023-04-23T06:48:40.955Z,94952.50
2023-04-23T06:51:27.223Z,94950.44
2023-04-23T06:54:12.577Z,94947.88
2023-04-23T06:56:57.076Z,94946.50
2023-04-23T06:59:43.020Z,94944.25
2023-04-23T07:02:26.468Z,94939.97
2023-04-23T07:05:11.307Z,94943.25
2023-04-23T07:07:56.099Z,94947.25
2023-04-23T07:10:39.750Z,94939.31
2023-04-23T07:13:24.221Z,94941.13
2023-04-23T07:16:07.729Z,94948.06
2023-04-23T07:18:51.227Z,94943.41
2023-04-23T07:21:34.544Z,94948.97
2023-04-23T07:24:19.969Z,94946.13
2023-04-23T07:27:04.159Z,94940.81
2023-04-23T07:29:47.294Z,94940.91
2023-04-23T07:32:31.263Z,94925.16
2023-04-23T07:35:14.612Z,94937.44
2023-04-23T07:37:58.191Z,94936.78
2023-04-23T07:40:43.102Z,94943.94
2023-04-23T07:43:26.494Z,94942.50
2023-04-23T07:46:09.972Z,94930.63
2023-04-23T07:48:53.877Z,94949.81
2023-04-23T07:51:41.654Z,94939.72
2023-04-23T07:54:25.821Z,94931.13
2023-04-23T07:57:11.627Z,94936.09
2023-04-23T07:59:54.778Z,94941.78
2023-04-23T08:02:38.206Z,94940.88
2023-04-23T08:05:21.585Z,94945.91
2023-04-23T08:08:04.939Z,94931.44
2023-04-23T08:10:48.150Z,94945.19
2023-04-23T08:13:35.720Z,94939.22
2023-04-23T08:16:18.969Z,94932.38
2023-04-23T08:19:05.952Z,94940.66
2023-04-23T08:21:51.044Z,94943.16
2023-04-23T08:24:34.722Z,94939.28
2023-04-23T08:27:18.148Z,94947.06
2023-04-23T08:30:03.220Z,94929.47
2023-04-23T08:32:50.066Z,94927.56
2023-04-23T08:35:33.252Z,94925.59
2023-04-23T08:38:16.730Z,94930.06
2023-04-23T08:41:01.096Z,94916.69
2023-04-23T08:43:48.284Z,94918.50
2023-04-23T08:46:34.757Z,94912.50
2023-04-23T08:49:19.280Z,94913.72
2023-04-23T08:52:17.417Z,94916.69
2023-04-23T08:55:02.557Z,94908.72
2023-04-23T08:57:47.635Z,94911.97
2023-04-23T09:00:31.852Z,94921.16
2023-04-23T09:03:18.477Z,94902.25
2023-04-23T09:06:01.981Z,94912.28
2023-04-23T09:08:46.920Z,94908.06
2023-04-23T09:11:31.797Z,94903.66
2023-04-23T09:14:15.388Z,94915.31
2023-04-23T09:16:58.921Z,94909.47
2023-04-23T09:19:49.975Z,94899.88
2023-04-23T09:22:40.167Z,94898.81
2023-04-23T09:25:25.640Z,94897.50
2023-04-23T09:28:10.916Z,94897.66
2023-04-23T09:30:54.823Z,94894.56
2023-04-23T09:33:40.044Z,94890.28
2023-04-23T09:36:25.160Z,94891.63
2023-04-23T09:39:14.036Z,94886.94
2023-04-23T09:42:04.956Z,94881.13
2023-04-23T09:44:58.701Z,94876.53
2023-04-23T09:47:43.800Z,94865.19
2023-04-23T09:50:38.439Z,94875.66
2023-04-23T09:53:23.264Z,94865.03
2023-04-23T09:56:08.538Z,94858.56
2023-04-23T09:58:51.836Z,94857.06
2023-04-23T10:01:35.048Z,94862.19
2023-04-23T10:04:22.468Z,94851.06
2023-04-23T10:07:19.603Z,94853.09
2023-04-23T10:10:06.369Z,94843.97
2023-04-23T10:15:40.417Z,94836.13
2023-04-23T10:18:24.141Z,94830.47
2023-04-23T10:21:08.403Z,94838.78
2023-04-23T10:23:53.152Z,94829.81
2023-04-23T10:26:42.554Z,94823.28
2023-04-23T10:29:28.825Z,94827.66
2023-04-23T10:32:13.167Z,94811.88
2023-04-23T10:34:56.305Z,94805.63
2023-04-23T10:37:41.656Z,94811.59
2023-04-23T10:40:31.076Z,94809.69
2023-04-23T10:43:16.472Z,94800.50
2023-04-23T10:45:59.922Z,94807.41
2023-04-23T10:49:08.090Z,94802.53
2023-04-23T10:52:18.877Z,94792.41
2023-04-23T10:55:04.309Z,94792.09
2023-04-23T10:57:59.948Z,94798.75
2023-04-23T11:00:47.783Z,94792.28
2023-04-23T11:03:34.012Z,94789.59
2023-04-23T11:06:43.755Z,94787.91
2023-04-23T11:09:33.941Z,94776.84
2023-04-23T11:12:34.311Z,94784.31
2023-04-23T11:15:21.285Z,94777.97
2023-04-23T11:18:05.338Z,94780.28
2023-04-23T11:20:50.394Z,94768.97
2023-04-23T11:23:34.541Z,94765.22
2023-04-23T11:26:19.696Z,94754.03
2023-04-23T11:29:04.587Z,94756.44
2023-04-23T11:32:00.890Z,94754.44
2023-04-23T11:34:47.811Z,94748.19
2023-04-23T11:37:31.103Z,94737.41
2023-04-23T11:40:19.086Z,94742.72
2023-04-23T11:43:04.427Z,94741.56
2023-04-23T11:45:48.202Z,94743.81
2023-04-23T11:48:31.572Z,94738.28
2023-04-23T11:51:14.637Z,94730.56
2023-04-23T11:54:04.562Z,94731.22
2023-04-23T11:56:47.615Z,94728.94
2023-04-23T11:59:32.368Z,94721.22
2023-04-23T12:02:16.521Z,94719.81
2023-04-23T12:04:59.871Z,94707.34
2023-04-23T12:07:43.347Z,94711.97
2023-04-23T12:10:26.692Z,94706.91
2023-04-23T12:13:15.066Z,94710.63
2023-04-23T12:16:01.555Z,94711.94
2023-04-23T12:18:45.814Z,94717.00
2023-04-23T12:21:29.937Z,94697.94
2023-04-23T12:24:13.474Z,94703.34
2023-04-23T12:27:00.805Z,94705.44
2023-04-23T12:29:47.974Z,94697.59
2023-04-23T12:32:34.654Z,94692.34
2023-04-23T12:35:17.827Z,94688.50
2023-04-23T12:38:01.010Z,94684.25
2023-04-23T12:40:44.124Z,94686.25
2023-04-23T12:43:28.295Z,94680.09
2023-04-23T12:46:11.456Z,94682.72
2023-04-23T12:48:56.037Z,94676.91
2023-04-23T12:51:39.316Z,94680.03
2023-04-23T12:54:22.428Z,94669.94
2023-04-23T12:57:06.682Z,94672.97
2023-04-23T12:59:49.893Z,94678.03
2023-04-23T13:02:33.224Z,94673.25
2023-04-23T13:05:18.103Z,94671.94
2023-04-23T13:08:01.484Z,94676.19
2023-04-23T13:10:45.237Z,94672.03
2023-04-23T13:13:28.658Z,94674.09
2023-04-23T13:16:12.162Z,94668.47
2023-04-23T13:18:55.987Z,94666.09
2023-04-23T13:21:40.934Z,94671.72
2023-04-23T13:24:24.108Z,94672.78
2023-04-23T13:27:07.290Z,94669.06
2023-04-23T13:29:50.565Z,94668.69
2023-04-23T13:32:33.824Z,94669.50
2023-04-23T13:35:17.876Z,94670.31
2023-04-23T13:38:02.739Z,94668.72
2023-04-23T13:40:45.862Z,94664.00
2023-04-23T13:43:28.926Z,94654.22
2023-04-23T13:46:12.340Z,94648.94
2023-04-23T13:48:56.471Z,94654.56
2023-04-23T13:51:39.583Z,94640.84
2023-04-23T13:54:24.458Z,94644.09
2023-04-23T13:57:08.448Z,94638.06
2023-04-23T13:59:51.548Z,94644.41
2023-04-23T14:02:34.885Z,94647.31
2023-04-23T14:05:19.123Z,94651.63
2023-04-23T14:08:03.435Z,94653.38
2023-04-23T14:10:48.333Z,94654.38
2023-04-23T14:13:33.404Z,94642.91
2023-04-23T14:16:17.523Z,94654.16
2023-04-23T14:19:00.977Z,94649.97
2023-04-23T14:21:45.371Z,94650.03
2023-04-23T14:24:34.432Z,94645.19
2023-04-23T14:27:18.933Z,94647.31
2023-04-23T14:30:06.291Z,94638.66
2023-04-23T14:32:50.525Z,94639.44
2023-04-23T14:35:43.167Z,94634.19
2023-04-23T14:38:27.155Z,94639.34
2023-04-23T14:41:10.325Z,94626.91
2023-04-23T14:43:56.350Z,94636.56
2023-04-23T14:46:39.865Z,94627.25
2023-04-23T14:49:23.726Z,94633.19
2023-04-23T14:52:07.264Z,94632.97
2023-04-23T14:54:50.445Z,94640.31
2023-04-23T14:57:33.822Z,94638.75
2023-04-23T15:00:19.314Z,94629.84
2023-04-23T15:03:08.572Z,94629.31
2023-04-23T15:05:52.270Z,94632.22
2023-04-23T15:08:36.007Z,94632.50
2023-04-23T15:11:19.187Z,94622.78
2023-04-23T15:14:08.022Z,94633.78
2023-04-23T15:16:55.902Z,94630.34
2023-04-23T15:19:40.021Z,94628.13
2023-04-23T15:22:24.815Z,94630.41
2023-04-23T15:25:09.482Z,94622.25
2023-04-23T15:27:57.944Z,94622.53
2023-04-23T15:30:43.528Z,94623.63
2023-04-23T15:33:28.468Z,94622.00
2023-04-23T15:36:11.681Z,94617.59
2023-04-23T15:38:54.861Z,94616.50
2023-04-23T15:41:40.828Z,94607.56
2023-04-23T15:44:25.216Z,94620.47
2023-04-23T15:47:08.587Z,94611.41
2023-04-23T15:49:53.248Z,94616.47
2023-04-23T15:52:37.593Z,94622.25
2023-04-23T15:55:20.810Z,94615.22
2023-04-23T15:58:04.167Z,94619.94
2023-04-23T16:00:48.107Z,94618.91
2023-04-23T16:03:31.416Z,94612.63
2023-04-23T16:06:16.217Z,94615.25
2023-04-23T16:08:59.754Z,94614.25
2023-04-23T16:11:45.696Z,94617.91
2023-04-23T16:14:30.035Z,94621.31
2023-04-23T16:17:13.443Z,94612.16
2023-04-23T16:19:57.225Z,94616.91
2023-04-23T16:22:42.125Z,94619.22
2023-04-23T16:25:26.496Z,94618.97
2023-04-23T16:28:09.854Z,94620.78
2023-04-23T16:30:54.415Z,94622.59
2023-04-23T16:33:38.108Z,94615.53
2023-04-23T16:36:21.575Z,94614.41
2023-04-23T16:39:07.522Z,94617.53
2023-04-23T16:41:51.531Z,94614.09
2023-04-23T16:44:36.054Z,94611.66
2023-04-23T16:47:20.741Z,94620.56
2023-04-23T16:50:04.224Z,94625.47
2023-04-23T16:52:50.987Z,94620.69
2023-04-23T16:55:37.589Z,94625.34
2023-04-23T16:58:22.853Z,94613.84
2023-04-23T17:01:06.162Z,94627.13
2023-04-23T17:03:49.570Z,94618.94
2023-04-23T17:06:34.494Z,94626.69
2023-04-23T17:09:17.601Z,94635.00
2023-04-23T17:12:02.661Z,94631.84
2023-04-23T17:14:45.889Z,94625.47
2023-04-23T17:17:29.106Z,94630.06
2023-04-23T17:20:12.763Z,94633.94
2023-04-23T17:22:57.147Z,94635.72
2023-04-23T17:25:40.439Z,94636.78
2023-04-23T17:28:27.834Z,94640.84
2023-04-23T17:31:11.433Z,94643.91
2023-04-23T17:33:56.256Z,94643.78
2023-04-23T17:36:39.322Z,94640.94
2023-04-23T17:39:23.848Z,94650.59
2023-04-23T17:42:10.644Z,94653.03
2023-04-23T17:44:55.483Z,94654.50
2023-04-23T17:47:41.959Z,94658.09
2023-04-23T17:50:27.713Z,94660.22
2023-04-23T17:53:11.603Z,94667.44
2023-04-23T17:56:00.144Z,94670.03
2023-04-23T17:58:45.266Z,94672.03
2023-04-23T18:01:33.075Z,94675.50
2023-04-23T18:04:17.742Z,94677.16
2023-04-23T18:07:03.363Z,94686.72
2023-04-23T18:09:47.098Z,94678.97
2023-04-23T18:12:31.086Z,94688.59
2023-04-23T18:15:14.890Z,94686.88
2023-04-23T18:18:00.020Z,94680.72
2023-04-23T18:20:46.371Z,94698.16
2023-04-23T18:23:31.754Z,94695.50
2023-04-23T18:26:15.434Z,94693.53
2023-04-23T18:28:58.800Z,94692.19
2023-04-23T18:31:42.187Z,94694.47
2023-04-23T18:34:31.257Z,94694.94
2023-04-23T18:37:33.307Z,94698.56
2023-04-23T18:40:16.833Z,94703.78
2023-04-23T18:42:59.998Z,94707.91
2023-04-23T18:45:43.401Z,94704.13
2023-04-23T18:48:52.145Z,94718.50
2023-04-23T18:51:39.540Z,94715.34
2023-04-23T18:54:25.340Z,94722.78
2023-04-23T18:57:09.134Z,94709.19
2023-04-23T18:59:52.562Z,94718.50
2023-04-23T19:02:36.203Z,94709.69
2023-04-23T19:05:20.412Z,94720.56
2023-04-23T19:08:05.257Z,94717.41
2023-04-23T19:10:48.382Z,94718.91
2023-04-23T19:13:33.260Z,94723.56
2023-04-23T19:16:20.877Z,94719.84
2023-04-23T19:19:04.230Z,94723.94
2023-04-23T19:21:47.420Z,94723.38
2023-04-23T19:24:32.947Z,94719.91
2023-04-23T19:27:16.027Z,94722.69
2023-04-23T19:30:01.131Z,94720.53
2023-04-23T19:32:44.431Z,94724.66
2023-04-23T19:35:27.967Z,94725.88
2023-04-23T19:38:11.200Z,94717.38
2023-04-23T19:40:55.990Z,94725.47
2023-04-23T19:43:40.519Z,94719.00
2023-04-23T19:46:23.708Z,94716.19
2023-04-23T19:49:07.045Z,94715.94
2023-04-23T19:51:51.318Z,94713.50
2023-04-23T19:54:34.747Z,94714.63
2023-04-23T19:57:19.980Z,94716.19
2023-04-23T20:00:06.188Z,94724.72
2023-04-23T20:02:49.839Z,94723.13
2023-04-23T20:05:33.125Z,94723.28
2023-04-23T20:08:26.211Z,94727.13
2023-04-23T20:11:10.448Z,94727.59
2023-04-23T20:13:55.518Z,94732.69
2023-04-23T20:16:39.127Z,94730.09
2023-04-23T20:19:25.765Z,94732.25
2023-04-23T20:22:09.606Z,94727.06
2023-04-23T20:24:53.053Z,94728.22
2023-04-23T20:27:36.325Z,94725.41
2023-04-23T20:30:21.305Z,94723.47
2023-04-23T20:33:04.701Z,94719.28
2023-04-23T20:35:48.237Z,94721.66
2023-04-23T20:38:33.387Z,94729.00
2023-04-23T20:41:16.855Z,94725.53
2023-04-23T20:44:02.055Z,94726.97
2023-04-23T20:46:47.309Z,94731.66
2023-04-23T20:49:30.957Z,94724.28
2023-04-23T20:52:15.395Z,94722.25
2023-04-23T20:54:58.985Z,94716.84
2023-04-23T20:57:42.679Z,94723.63
2023-04-23T21:00:25.873Z,94723.84
2023-04-23T21:03:10.634Z,94729.72
2023-04-23T21:05:58.716Z,94728.25
2023-04-23T21:08:42.941Z,94728.38
2023-04-23T21:11:27.860Z,94736.75
2023-04-23T21:14:11.014Z,94738.50
2023-04-23T21:16:56.376Z,94747.91
2023-04-23T21:19:41.307Z,94745.63
2023-04-23T21:22:24.576Z,94733.22
2023-04-23T21:25:08.343Z,94735.78
2023-04-23T21:27:51.642Z,94738.94
2023-04-23T21:30:44.621Z,94736.50
2023-04-23T21:33:27.652Z,94728.19
2023-04-23T21:36:12.129Z,94729.19
2023-04-23T21:38:55.362Z,94731.78
2023-04-23T21:41:39.302Z,94734.38
2023-04-23T21:44:22.871Z,94739.44
2023-04-23T21:47:07.122Z,94734.47
2023-04-23T21:49:50.269Z,94738.72
2023-04-23T21:52:34.731Z,94746.75
2023-04-23T21:55:17.970Z,94749.31
2023-04-23T22:00:48.145Z,94748.09
2023-04-23T22:03:35.340Z,94755.97
2023-04-23T22:06:23.319Z,94757.00
2023-04-23T22:09:07.896Z,94757.00
2023-04-23T22:12:01.247Z,94753.97
2023-04-23T22:14:45.089Z,94755.56
2023-04-23T22:17:30.581Z,94755.97
2023-04-23T22:20:14.685Z,94767.94
2023-04-23T22:22:57.893Z,94767.16
2023-04-23T22:25:42.443Z,94754.41
2023-04-23T22:28:25.510Z,94761.94
2023-04-23T22:31:08.687Z,94764.59
2023-04-23T22:33:51.756Z,94763.38
2023-04-23T22:36:35.867Z,94762.25
2023-04-23T22:39:19.051Z,94758.19
2023-04-23T22:42:04.176Z,94759.84
2023-04-23T22:44:47.362Z,94752.19
2023-04-23T22:47:32.021Z,94734.09
2023-04-23T22:50:15.176Z,94728.56
2023-04-23T22:52:58.317Z,94724.75
2023-04-23T22:55:41.463Z,94722.03
2023-04-23T22:58:25.967Z,94716.41
2023-04-23T23:01:09.060Z,94719.09
2023-04-23T23:03:52.184Z,94718.28
2023-04-23T23:06:35.620Z,94705.56
2023-04-23T23:09:19.047Z,94710.84
2023-04-23T23:12:03.102Z,94696.41
2023-04-23T23:14:47.591Z,94699.91
2023-04-23T23:17:30.679Z,94717.75
2023-04-23T23:20:14.813Z,94731.53
2023-04-23T23:22:57.797Z,94736.94
2023-04-23T23:25:41.105Z,94744.88
2023-04-23T23:28:24.206Z,94750.16
2023-04-23T23:31:09.131Z,94745.06
2023-04-23T23:33:52.231Z,94739.09
2023-04-23T23:36:35.486Z,94717.16
2023-04-23T23:39:20.114Z,94707.91
2023-04-23T23:42:03.273Z,94698.09
2023-04-23T23:44:46.399Z,94692.53
2023-04-23T23:47:31.106Z,94699.19
2023-04-23T23:50:14.379Z,94701.13
2023-04-23T23:52:57.549Z,94693.53
2023-04-23T23:55:40.867Z,94690.16
2023-04-23T23:58:23.994Z,94684.53
